FOND DU LAC (CZFD)

SPECI CZFD 070938Z AUTO 00000KT 7SM -SN M32/M35 A2981
METAR CZFD 070900Z AUTO 25002KT 3SM -SN M33/M36 A2981
SPECI CZFD 070852Z AUTO 24002KT 7SM -SN M33/M36 A2981
SPECI CZFD 070836Z AUTO 22004KT 220V300 8SM -SN M31/M33 A2981
METAR CZFD 070800Z AUTO 26004KT 9SM -SN M33/M36 A2980
SPECI CZFD 070714Z AUTO 29003KT 7SM -SN M32/M35 A2980
METAR CZFD 070700Z AUTO 25003KT 2 1/2SM HZ M32/M35 A2980


Test Image